Time;durP1;ratioP1;P1;durP2;ratioP2;P2;SDS_P1;SDS_P2;PMS_P1;PMS_P2;Temp;Humidity;BMP_temperature;BMP_pressure;BME280_temperature;BME280_humidity;BME280_pressure;Samples;Min_cycle;Max_cycle;Signal;HPM_P1;HPM_P2
2024/02/13 00:01:07;;;;;;;1.33;0.68;;;5.80;99.90;;;;;;4970316;28;20039;-79
2024/02/13 00:03:33;;;;;;;1.45;0.98;;;5.80;99.90;;;;;;4961227;28;20129;-79
2024/02/13 00:05:58;;;;;;;1.88;0.98;;;5.80;99.90;;;;;;4960818;28;20096;-79
2024/02/13 00:08:27;;;;;;;2.13;1.20;;;5.70;99.90;;;;;;4966601;28;20050;-79
2024/02/13 00:10:53;;;;;;;3.28;1.02;;;5.70;99.90;;;;;;4970938;28;20084;-79
2024/02/13 00:13:19;;;;;;;1.92;1.00;;;5.60;99.90;;;;;;4945677;28;20050;-80
2024/02/13 00:15:44;;;;;;;1.67;1.27;;;5.60;99.90;;;;;;4968877;28;20031;-79
2024/02/13 00:18:10;;;;;;;4.15;1.20;;;5.50;99.90;;;;;;4951941;28;20679;-79
2024/02/13 00:20:36;;;;;;;1.58;0.98;;;5.50;99.90;;;;;;4954531;28;20030;-78
2024/02/13 00:23:02;;;;;;;1.75;0.70;;;5.50;99.90;;;;;;4962208;28;20042;-80
2024/02/13 00:25:28;;;;;;;1.30;0.70;;;5.50;99.90;;;;;;4968023;28;20034;-80
2024/02/13 00:27:54;;;;;;;2.67;1.08;;;5.40;99.90;;;;;;4964469;28;20507;-79
2024/02/13 00:30:20;;;;;;;3.50;1.00;;;5.40;99.90;;;;;;4967393;28;20038;-80
2024/02/13 00:32:46;;;;;;;3.03;1.25;;;5.40;99.90;;;;;;4956205;28;20034;-80
2024/02/13 00:35:13;;;;;;;0.93;0.82;;;5.40;99.90;;;;;;4964558;28;20093;-79
2024/02/13 00:37:39;;;;;;;1.80;1.10;;;5.30;99.90;;;;;;4947848;28;20055;-79
2024/02/13 00:40:05;;;;;;;7.00;1.17;;;5.30;99.90;;;;;;4966454;28;20046;-80
2024/02/13 00:42:32;;;;;;;5.18;1.55;;;5.30;99.90;;;;;;4953138;28;20049;-79
2024/02/13 00:45:03;;;;;;;0.93;0.70;;;5.30;99.90;;;;;;4964581;28;20382;-78
2024/02/13 00:47:29;;;;;;;1.33;0.98;;;5.30;99.90;;;;;;4952420;28;20045;-80
2024/02/13 00:49:55;;;;;;;2.22;1.05;;;5.20;99.90;;;;;;4963207;28;20401;-80
2024/02/13 00:52:21;;;;;;;1.80;1.38;;;5.20;99.90;;;;;;4965722;28;20267;-78
2024/02/13 00:54:47;;;;;;;0.60;0.50;;;5.20;99.90;;;;;;4963038;28;20456;-80
2024/02/13 00:57:13;;;;;;;2.13;1.00;;;5.20;99.90;;;;;;4949316;28;20043;-80
2024/02/13 00:59:40;;;;;;;1.67;0.80;;;5.20;99.90;;;;;;4947997;28;20049;-80
2024/02/13 01:02:05;;;;;;;2.17;1.17;;;5.20;99.90;;;;;;4968307;28;20450;-79
2024/02/13 01:04:31;;;;;;;1.38;0.90;;;5.30;99.90;;;;;;4949559;28;20046;-79
2024/02/13 01:06:57;;;;;;;5.25;1.27;;;5.20;99.90;;;;;;4953351;28;20043;-79
2024/02/13 01:09:23;;;;;;;2.33;1.38;;;5.20;99.90;;;;;;4968239;28;20510;-80
2024/02/13 01:11:49;;;;;;;2.30;1.30;;;5.20;99.90;;;;;;4961745;28;20053;-79
2024/02/13 01:14:15;;;;;;;2.05;1.05;;;5.20;99.90;;;;;;4966736;28;20034;-80
2024/02/13 01:16:41;;;;;;;3.38;1.00;;;5.30;99.90;;;;;;4963847;28;20124;-80
2024/02/13 01:19:07;;;;;;;9.88;1.17;;;5.30;99.90;;;;;;4961702;28;20439;-77
2024/02/13 01:21:32;;;;;;;1.90;1.58;;;5.20;99.90;;;;;;4959648;28;20080;-76
2024/02/13 01:23:58;;;;;;;1.60;1.27;;;5.20;99.90;;;;;;4961250;28;20133;-78
2024/02/13 01:26:24;;;;;;;1.75;0.95;;;5.20;99.90;;;;;;4952821;28;20038;-80
2024/02/13 01:28:50;;;;;;;1.45;0.93;;;5.30;99.90;;;;;;4966563;28;20479;-79
2024/02/13 01:31:16;;;;;;;3.28;1.90;;;5.30;99.90;;;;;;4961468;28;20231;-79
2024/02/13 01:33:43;;;;;;;7.82;2.05;;;5.20;99.90;;;;;;4962716;28;20101;-79
2024/02/13 01:36:09;;;;;;;2.95;1.92;;;5.20;99.90;;;;;;4962832;28;20066;-79
2024/02/13 01:38:36;;;;;;;1.70;1.40;;;5.20;99.90;;;;;;4965293;28;20170;-79
2024/02/13 01:41:02;;;;;;;2.97;1.45;;;5.20;99.90;;;;;;4951139;28;20050;-79
2024/02/13 01:43:32;;;;;;;1.80;1.58;;;5.20;99.90;;;;;;4965929;28;20494;-79
2024/02/13 01:45:59;;;;;;;2.88;1.85;;;5.20;99.90;;;;;;4967525;28;20149;-80
2024/02/13 01:48:25;;;;;;;2.13;1.60;;;5.20;99.90;;;;;;4960487;28;20061;-80
2024/02/13 01:50:53;;;;;;;2.75;1.77;;;5.20;99.90;;;;;;4959834;28;20034;-79
2024/02/13 01:53:23;;;;;;;4.85;1.90;;;5.10;99.90;;;;;;4957269;28;20082;-79
2024/02/13 01:55:50;;;;;;;3.33;2.50;;;5.10;99.90;;;;;;4961228;28;20463;-80
2024/02/13 01:58:19;;;;;;;4.78;1.98;;;5.10;99.90;;;;;;4963082;28;20386;-80
2024/02/13 02:00:44;;;;;;;4.38;2.45;;;5.10;99.90;;;;;;4969257;28;20046;-80
2024/02/13 02:03:13;;;;;;;3.15;2.35;;;5.00;99.90;;;;;;4968641;28;20119;-79
2024/02/13 02:05:39;;;;;;;2.85;2.08;;;5.00;99.90;;;;;;4962997;28;20466;-79
2024/02/13 02:08:07;;;;;;;3.58;2.13;;;5.00;99.90;;;;;;4951884;28;20046;-79
2024/02/13 02:10:32;;;;;;;1.90;1.40;;;5.00;99.90;;;;;;4966510;28;20068;-79
2024/02/13 02:12:58;;;;;;;5.70;1.85;;;5.00;99.90;;;;;;4947210;28;20562;-80
2024/02/13 02:15:24;;;;;;;1.92;1.42;;;4.90;99.90;;;;;;4964625;28;20074;-79
2024/02/13 02:17:54;;;;;;;3.42;2.67;;;4.90;99.90;;;;;;4965628;28;20065;-79
2024/02/13 02:20:21;;;;;;;7.32;2.67;;;4.90;99.90;;;;;;4965297;28;20083;-80
2024/02/13 02:22:47;;;;;;;1.85;1.63;;;4.90;99.90;;;;;;4966188;28;20196;-79
2024/02/13 02:25:16;;;;;;;2.42;1.70;;;4.80;99.90;;;;;;4969341;28;20124;-78
2024/02/13 02:27:42;;;;;;;2.47;1.45;;;4.80;99.90;;;;;;4967336;28;20052;-79
2024/02/13 02:30:08;;;;;;;2.42;1.35;;;4.80;99.90;;;;;;4968446;28;20482;-80
2024/02/13 02:32:34;;;;;;;2.50;1.98;;;4.80;99.90;;;;;;4972786;28;20049;-79
2024/02/13 02:35:00;;;;;;;2.92;2.20;;;4.80;99.90;;;;;;4966725;28;20479;-79
2024/02/13 02:37:26;;;;;;;2.00;1.67;;;4.80;99.90;;;;;;4970747;28;20050;-79
2024/02/13 02:39:51;;;;;;;2.70;1.95;;;4.80;99.90;;;;;;4964131;28;20038;-79
2024/02/13 02:42:17;;;;;;;5.78;3.15;;;4.80;99.90;;;;;;4968476;28;20069;-77
2024/02/13 02:44:43;;;;;;;6.55;1.80;;;4.80;99.90;;;;;;4966452;28;20105;-79
2024/02/13 02:47:10;;;;;;;3.10;2.33;;;4.80;99.90;;;;;;4966751;28;20100;-79
2024/02/13 02:49:37;;;;;;;3.20;2.15;;;4.80;99.90;;;;;;4953496;28;20043;-79
2024/02/13 02:52:07;;;;;;;7.85;2.42;;;4.80;99.90;;;;;;4951859;28;20053;-79
2024/02/13 02:54:36;;;;;;;4.63;1.48;;;4.80;99.90;;;;;;4967375;28;20237;-79
2024/02/13 02:57:05;;;;;;;3.15;1.70;;;4.70;99.90;;;;;;4966700;28;20081;-79
2024/02/13 02:59:31;;;;;;;4.57;2.08;;;4.70;99.90;;;;;;4968342;28;20042;-79
2024/02/13 03:01:57;;;;;;;1.88;1.45;;;4.70;99.90;;;;;;4965788;28;20479;-79
2024/02/13 03:04:23;;;;;;;2.97;1.90;;;4.70;99.90;;;;;;4967121;28;20204;-79
2024/02/13 03:06:49;;;;;;;6.80;1.80;;;4.70;99.90;;;;;;4949127;28;20046;-79
2024/02/13 03:09:15;;;;;;;3.38;2.35;;;4.70;99.90;;;;;;4951377;28;20069;-78
2024/02/13 03:11:42;;;;;;;3.05;2.05;;;4.70;99.90;;;;;;4965420;28;20049;-80
2024/02/13 03:14:11;;;;;;;2.75;1.73;;;4.70;99.90;;;;;;4969319;28;20046;-78
2024/02/13 03:16:37;;;;;;;2.75;1.70;;;4.70;99.90;;;;;;4966642;28;20038;-80
2024/02/13 03:19:05;;;;;;;2.08;1.58;;;4.70;99.90;;;;;;4950415;28;20502;-79
2024/02/13 03:21:32;;;;;;;3.28;1.52;;;4.70;99.90;;;;;;4967436;28;20195;-80
2024/02/13 03:23:58;;;;;;;4.18;1.88;;;4.70;99.90;;;;;;4968402;28;20156;-79
2024/02/13 03:26:24;;;;;;;4.35;2.13;;;4.60;99.90;;;;;;4968374;28;20128;-79
2024/02/13 03:28:50;;;;;;;3.15;1.77;;;4.70;99.90;;;;;;4969192;28;20039;-80
2024/02/13 03:31:15;;;;;;;3.15;1.13;;;4.60;99.90;;;;;;4960740;28;20158;-79
2024/02/13 03:33:41;;;;;;;5.22;1.98;;;4.60;99.90;;;;;;4965703;28;20067;-80
2024/02/13 03:36:07;;;;;;;2.05;1.48;;;4.60;99.90;;;;;;4964587;28;20141;-78
2024/02/13 03:38:33;;;;;;;3.97;2.15;;;4.60;99.90;;;;;;4964400;28;20058;-78
2024/02/13 03:41:00;;;;;;;3.50;2.10;;;4.60;99.90;;;;;;4970529;28;20054;-77
2024/02/13 03:43:26;;;;;;;4.85;1.85;;;4.50;99.90;;;;;;4959263;28;20514;-79
2024/02/13 03:45:53;;;;;;;2.80;1.85;;;4.50;99.90;;;;;;4952996;28;20040;-79
2024/02/13 03:48:19;;;;;;;2.25;1.60;;;4.50;99.90;;;;;;4974571;28;20392;-79
2024/02/13 03:50:44;;;;;;;1.92;1.67;;;4.50;99.90;;;;;;4967067;28;20054;-78
2024/02/13 03:53:13;;;;;;;11.80;2.88;;;4.50;99.90;;;;;;4965814;28;20041;-78
2024/02/13 03:55:39;;;;;;;3.88;2.05;;;4.50;99.90;;;;;;4965917;28;20474;-79
2024/02/13 03:58:05;;;;;;;4.40;2.33;;;4.50;99.90;;;;;;4953826;28;20483;-79
2024/02/13 04:00:32;;;;;;;2.97;2.13;;;4.50;99.90;;;;;;4951665;28;20049;-79
2024/02/13 04:02:58;;;;;;;6.95;2.17;;;4.50;99.90;;;;;;4969431;28;20050;-79
2024/02/13 04:05:24;;;;;;;2.65;1.42;;;4.50;99.90;;;;;;4949485;28;20042;-78
2024/02/13 04:07:50;;;;;;;3.42;1.33;;;4.50;99.90;;;;;;4969335;28;20439;-79
2024/02/13 04:10:16;;;;;;;2.78;1.58;;;4.40;99.90;;;;;;4965930;28;20109;-78
2024/02/13 04:12:43;;;;;;;2.95;2.03;;;4.50;99.90;;;;;;4951118;28;20038;-79
2024/02/13 04:15:11;;;;;;;2.53;2.10;;;4.50;99.90;;;;;;4966281;28;20050;-78
2024/02/13 04:17:37;;;;;;;4.22;1.88;;;4.50;99.90;;;;;;4949425;28;20047;-77
2024/02/13 04:20:04;;;;;;;3.90;2.40;;;4.50;99.90;;;;;;4965781;28;20101;-78
2024/02/13 04:22:30;;;;;;;2.83;2.22;;;4.50;99.90;;;;;;4963505;28;20050;-78
2024/02/13 04:24:56;;;;;;;2.85;2.28;;;4.50;99.90;;;;;;4965952;28;20042;-78
2024/02/13 04:27:22;;;;;;;3.95;1.83;;;4.50;99.90;;;;;;4965270;28;20451;-78
2024/02/13 04:29:48;;;;;;;2.70;2.03;;;4.50;99.90;;;;;;4944595;28;20045;-77
2024/02/13 04:32:14;;;;;;;2.92;1.67;;;4.50;99.90;;;;;;4964365;28;20523;-77
2024/02/13 04:34:41;;;;;;;5.18;2.22;;;4.50;99.90;;;;;;4965221;28;20047;-78
2024/02/13 04:37:09;;;;;;;3.85;1.95;;;4.50;99.90;;;;;;4966979;28;20050;-79
2024/02/13 04:39:34;;;;;;;3.38;2.53;;;4.50;99.90;;;;;;4950712;28;20031;-79
2024/02/13 04:42:00;;;;;;;3.50;2.42;;;4.50;99.90;;;;;;4970497;28;20060;-79
2024/02/13 04:44:26;;;;;;;4.72;3.08;;;4.50;99.90;;;;;;4962760;28;20078;-80
2024/02/13 04:46:53;;;;;;;2.58;1.95;;;4.50;99.90;;;;;;4949142;28;20225;-79
2024/02/13 04:49:18;;;;;;;3.72;2.42;;;4.50;99.90;;;;;;4961609;28;20593;-79
2024/02/13 04:51:44;;;;;;;2.05;1.73;;;4.40;99.90;;;;;;4963553;28;20039;-79
2024/02/13 04:54:10;;;;;;;5.40;2.45;;;4.50;99.90;;;;;;4970976;28;20109;-79
2024/02/13 04:56:36;;;;;;;3.85;2.00;;;4.50;99.90;;;;;;4967941;28;20069;-74
2024/02/13 04:59:02;;;;;;;6.50;2.40;;;4.40;99.90;;;;;;4969008;28;20049;-80
2024/02/13 05:01:29;;;;;;;5.07;2.90;;;4.40;99.90;;;;;;4963536;28;20050;-79
2024/02/13 05:09:20;;;;;;;4.10;2.13;;;4.40;99.90;;;;;;4927154;28;20388;-78
2024/02/13 05:11:46;;;;;;;2.28;1.67;;;4.40;99.90;;;;;;4948929;28;20062;-79
2024/02/13 05:14:11;;;;;;;2.03;1.80;;;4.40;99.90;;;;;;4961917;28;20046;-79
2024/02/13 05:16:41;;;;;;;5.97;2.80;;;4.40;99.90;;;;;;4967124;28;20057;-78
2024/02/13 05:19:07;;;;;;;2.42;1.58;;;4.30;99.90;;;;;;4970951;28;20050;-75
2024/02/13 05:21:35;;;;;;;2.63;1.80;;;4.40;99.90;;;;;;4968366;28;20055;-79
2024/02/13 05:24:03;;;;;;;3.90;3.20;;;4.40;99.90;;;;;;4953915;28;20049;-80
2024/02/13 05:26:29;;;;;;;2.88;2.05;;;4.40;99.90;;;;;;4967942;28;20086;-78
2024/02/13 05:28:56;;;;;;;2.53;1.90;;;4.40;99.90;;;;;;4964545;28;20125;-78
2024/02/13 05:31:23;;;;;;;2.50;1.75;;;4.40;99.90;;;;;;4956204;28;20039;-78
2024/02/13 05:33:52;;;;;;;2.83;1.83;;;4.40;99.90;;;;;;4966037;28;20041;-78
2024/02/13 05:36:18;;;;;;;4.80;3.22;;;4.40;99.90;;;;;;4967821;28;20058;-79
2024/02/13 05:38:44;;;;;;;5.03;3.10;;;4.40;99.90;;;;;;4952805;28;20043;-79
2024/02/13 05:41:10;;;;;;;7.07;3.15;;;4.50;99.90;;;;;;4968478;28;20051;-79
2024/02/13 05:43:38;;;;;;;6.88;3.22;;;4.40;99.90;;;;;;4949247;28;20053;-79
2024/02/13 05:46:04;;;;;;;4.05;2.80;;;4.40;99.90;;;;;;4949081;28;20041;-79
2024/02/13 05:48:29;;;;;;;5.50;3.35;;;4.40;99.90;;;;;;4964063;28;20046;-78
2024/02/13 05:50:55;;;;;;;4.25;2.55;;;4.40;99.90;;;;;;4965609;28;20101;-79
2024/02/13 05:53:21;;;;;;;6.15;2.72;;;4.40;99.90;;;;;;4952205;28;20434;-79
2024/02/13 05:55:48;;;;;;;2.53;2.22;;;4.40;99.90;;;;;;4962328;28;20121;-79
2024/02/13 05:58:14;;;;;;;4.30;3.42;;;4.40;99.90;;;;;;4966867;28;20360;-79
2024/02/13 06:00:40;;;;;;;4.18;2.88;;;4.40;99.90;;;;;;4952540;28;20172;-79
2024/02/13 06:03:06;;;;;;;3.05;2.38;;;4.40;99.90;;;;;;4967738;28;20042;-78
2024/02/13 06:05:32;;;;;;;6.05;3.60;;;4.40;99.90;;;;;;4968020;28;20042;-78
2024/02/13 06:07:58;;;;;;;3.80;2.70;;;4.40;99.90;;;;;;4965662;28;20039;-78
2024/02/13 06:10:24;;;;;;;3.00;2.65;;;4.50;99.90;;;;;;4966006;28;20043;-79
2024/02/13 06:12:50;;;;;;;5.15;2.92;;;4.40;99.90;;;;;;4956653;28;20073;-79
2024/02/13 06:15:16;;;;;;;10.73;2.20;;;4.50;99.90;;;;;;4961342;28;20039;-79
2024/02/13 06:17:43;;;;;;;12.32;2.70;;;4.40;99.90;;;;;;4965901;28;20489;-79
2024/02/13 06:20:12;;;;;;;6.35;2.55;;;4.40;99.90;;;;;;4962465;28;20050;-79
2024/02/13 06:22:38;;;;;;;6.85;3.83;;;4.40;99.90;;;;;;4966122;28;20046;-78
2024/02/13 06:25:06;;;;;;;11.65;7.18;;;4.50;99.90;;;;;;4965314;28;20046;-77
2024/02/13 06:27:32;;;;;;;3.65;2.35;;;4.40;99.90;;;;;;4970657;28;20050;-79
2024/02/13 06:29:58;;;;;;;4.00;2.83;;;4.50;99.90;;;;;;4966433;28;20093;-80
2024/02/13 06:32:25;;;;;;;4.43;2.40;;;4.50;99.90;;;;;;4946910;28;20177;-79
2024/02/13 06:34:53;;;;;;;5.32;3.40;;;4.50;99.90;;;;;;4968248;28;20069;-79
2024/02/13 06:37:22;;;;;;;5.68;3.45;;;4.50;99.90;;;;;;4964754;28;20059;-78
2024/02/13 06:39:48;;;;;;;3.35;2.30;;;4.60;99.90;;;;;;4957053;28;20054;-79
2024/02/13 06:42:14;;;;;;;5.78;3.67;;;4.50;99.90;;;;;;4962603;28;20089;-79
2024/02/13 06:44:40;;;;;;;4.72;3.15;;;4.60;99.90;;;;;;4970322;28;20034;-79
2024/02/13 06:47:08;;;;;;;5.97;2.90;;;4.60;99.90;;;;;;4969579;28;20041;-78
2024/02/13 06:49:34;;;;;;;2.83;2.53;;;4.60;99.90;;;;;;4957164;28;20082;-78
2024/02/13 06:52:00;;;;;;;3.03;2.25;;;4.60;99.90;;;;;;4974618;28;20039;-78
2024/02/13 06:54:26;;;;;;;5.75;3.22;;;4.60;99.90;;;;;;4965901;28;20038;-79
2024/02/13 06:56:52;;;;;;;9.80;2.75;;;4.70;99.90;;;;;;4957100;28;20549;-78
2024/02/13 06:59:18;;;;;;;2.70;2.50;;;4.70;99.90;;;;;;4972838;28;20053;-78
2024/02/13 07:01:44;;;;;;;3.50;2.42;;;4.70;99.90;;;;;;4954250;28;20043;-79
2024/02/13 07:04:13;;;;;;;5.07;3.10;;;4.80;99.90;;;;;;4975391;28;20042;-79
2024/02/13 07:06:39;;;;;;;2.97;2.67;;;4.80;99.90;;;;;;4969627;28;20046;-78
2024/02/13 07:09:06;;;;;;;5.50;3.58;;;4.80;99.90;;;;;;4950139;28;20042;-78
2024/02/13 07:11:34;;;;;;;3.92;2.40;;;4.80;99.90;;;;;;4966734;28;20038;-80
2024/02/13 07:14:00;;;;;;;3.75;2.90;;;4.80;99.90;;;;;;4968034;28;20041;-79
2024/02/13 07:16:26;;;;;;;3.30;2.35;;;4.80;99.90;;;;;;4974045;28;20064;-79
2024/02/13 07:18:52;;;;;;;3.53;2.97;;;4.70;99.90;;;;;;4952279;28;20050;-79
2024/02/13 07:21:19;;;;;;;6.07;3.92;;;4.90;99.90;;;;;;4972253;28;20046;-78
2024/02/13 07:23:45;;;;;;;2.42;2.20;;;4.80;99.90;;;;;;4967563;28;20538;-78
2024/02/13 07:26:11;;;;;;;2.95;2.47;;;4.90;99.90;;;;;;4966989;28;20039;-77
2024/02/13 07:28:39;;;;;;;3.33;2.67;;;4.90;99.90;;;;;;4969426;28;20473;-79
2024/02/13 07:31:07;;;;;;;5.63;3.83;;;4.90;99.90;;;;;;4968671;28;20073;-78
2024/02/13 07:33:33;;;;;;;4.25;3.42;;;4.90;99.90;;;;;;4967828;28;20039;-79
2024/02/13 07:36:00;;;;;;;3.00;2.33;;;5.00;99.90;;;;;;4949512;28;20163;-79
2024/02/13 07:38:26;;;;;;;3.22;2.60;;;4.90;99.90;;;;;;4974168;28;20094;-78
2024/02/13 07:40:52;;;;;;;4.10;2.10;;;4.90;99.90;;;;;;4971903;28;20046;-79
2024/02/13 07:43:18;;;;;;;5.78;3.20;;;5.00;99.90;;;;;;4965214;28;20050;-78
2024/02/13 07:45:45;;;;;;;5.53;2.90;;;5.10;99.90;;;;;;4958216;28;20038;-79
2024/02/13 07:48:11;;;;;;;3.88;3.15;;;5.00;99.90;;;;;;4976922;28;20046;-78
2024/02/13 07:50:38;;;;;;;2.05;1.75;;;5.10;99.90;;;;;;4977893;28;20027;-79
2024/02/13 07:53:06;;;;;;;3.72;3.17;;;5.10;99.90;;;;;;4960446;28;20081;-78
2024/02/13 07:55:35;;;;;;;4.93;3.00;;;5.20;99.90;;;;;;4975949;28;20034;-79
2024/02/13 07:58:02;;;;;;;3.88;2.35;;;5.20;99.90;;;;;;4972364;28;20046;-76
2024/02/13 08:00:29;;;;;;;4.45;2.90;;;5.30;99.90;;;;;;4979293;28;20042;-78
2024/02/13 08:02:55;;;;;;;4.10;2.60;;;5.30;99.90;;;;;;4973409;28;20104;-79
2024/02/13 08:05:21;;;;;;;3.17;2.50;;;5.30;99.90;;;;;;4955513;28;20406;-78
2024/02/13 08:07:47;;;;;;;3.15;2.35;;;5.30;99.90;;;;;;4973185;28;20125;-78
2024/02/13 08:10:13;;;;;;;3.50;2.53;;;5.40;99.90;;;;;;4974675;28;20471;-78
2024/02/13 08:12:39;;;;;;;4.25;2.83;;;5.40;99.90;;;;;;4976365;28;20062;-78
2024/02/13 08:15:07;;;;;;;3.53;2.38;;;5.40;99.90;;;;;;4974190;28;20057;-78
2024/02/13 08:17:33;;;;;;;4.50;1.95;;;5.50;99.90;;;;;;4977712;28;20042;-79
2024/02/13 08:20:00;;;;;;;2.55;2.10;;;5.50;99.90;;;;;;4949324;28;20064;-78
2024/02/13 08:22:25;;;;;;;6.85;2.13;;;5.50;99.90;;;;;;4979779;28;20085;-78
2024/02/13 08:24:51;;;;;;;4.47;3.08;;;5.60;99.90;;;;;;4969415;28;20042;-78
2024/02/13 08:27:18;;;;;;;4.07;1.88;;;5.60;99.90;;;;;;4976717;28;20042;-76
2024/02/13 08:29:47;;;;;;;4.47;1.75;;;5.60;99.90;;;;;;4968654;28;20049;-78
2024/02/13 08:32:12;;;;;;;3.35;2.63;;;5.70;99.90;;;;;;4976064;28;20039;-78
2024/02/13 08:34:38;;;;;;;3.85;2.08;;;5.70;99.90;;;;;;4972066;28;20050;-78
2024/02/13 08:37:04;;;;;;;2.70;2.15;;;5.80;99.90;;;;;;4968067;28;20042;-78
2024/02/13 08:39:30;;;;;;;5.38;2.13;;;5.90;99.90;;;;;;4974426;28;20049;-78
2024/02/13 08:41:58;;;;;;;5.10;2.88;;;6.00;99.90;;;;;;4980288;28;20034;-78
2024/02/13 08:44:24;;;;;;;4.32;2.70;;;6.10;99.90;;;;;;4971577;28;20039;-77
2024/02/13 08:46:50;;;;;;;2.22;1.83;;;6.20;99.90;;;;;;4980225;28;20045;-77
2024/02/13 08:49:16;;;;;;;2.78;2.30;;;6.30;99.90;;;;;;4964193;28;20061;-77
2024/02/13 08:51:42;;;;;;;3.90;2.08;;;6.30;99.90;;;;;;4970908;28;20050;-78
2024/02/13 08:54:11;;;;;;;4.70;2.65;;;6.30;99.90;;;;;;4976568;28;20050;-78
2024/02/13 08:56:40;;;;;;;1.95;1.63;;;6.40;99.90;;;;;;4977008;28;20046;-77
2024/02/13 08:59:08;;;;;;;2.67;2.42;;;6.60;99.90;;;;;;4975070;28;20038;-78
2024/02/13 09:01:34;;;;;;;4.07;2.35;;;7.00;99.90;;;;;;4972205;28;20066;-78
2024/02/13 09:04:01;;;;;;;3.10;1.42;;;7.60;99.90;;;;;;4972556;28;20038;-76
2024/02/13 09:06:27;;;;;;;3.10;2.50;;;8.00;99.90;;;;;;4974512;28;20069;-75
2024/02/13 09:08:54;;;;;;;2.45;2.25;;;8.00;99.90;;;;;;4981685;28;20046;-78
2024/02/13 09:11:20;;;;;;;7.45;3.10;;;7.80;99.90;;;;;;4974724;28;20074;-78
2024/02/13 09:13:46;;;;;;;2.95;1.67;;;7.70;99.90;;;;;;4980949;28;20050;-78
2024/02/13 09:16:13;;;;;;;2.42;2.03;;;7.60;99.90;;;;;;4976950;28;20042;-78
2024/02/13 09:18:38;;;;;;;4.03;1.90;;;7.50;99.90;;;;;;4978534;28;20034;-78
2024/02/13 09:21:06;;;;;;;2.47;1.63;;;7.50;99.90;;;;;;4979990;28;20039;-79
2024/02/13 09:23:34;;;;;;;5.10;2.88;;;7.50;99.90;;;;;;4974886;28;20046;-78
2024/02/13 09:25:59;;;;;;;4.85;2.33;;;7.60;99.90;;;;;;4974084;28;20034;-78
2024/02/13 09:28:26;;;;;;;6.18;2.00;;;8.00;99.90;;;;;;4976913;28;20049;-78
2024/02/13 09:30:52;;;;;;;7.03;1.98;;;8.50;99.90;;;;;;4961566;28;20129;-77
2024/02/13 09:33:20;;;;;;;3.53;2.05;;;9.00;99.90;;;;;;4978718;28;20043;-76
2024/02/13 09:35:46;;;;;;;1.65;1.55;;;9.30;99.90;;;;;;4989585;28;20102;-77
2024/02/13 09:38:12;;;;;;;5.97;1.95;;;9.30;99.90;;;;;;4983509;28;20528;-77
2024/02/13 09:40:40;;;;;;;1.40;1.10;;;9.20;99.90;;;;;;4983422;28;20093;-77
2024/02/13 09:43:08;;;;;;;1.50;1.05;;;9.20;99.90;;;;;;4982928;28;20166;-75
2024/02/13 09:45:39;;;;;;;2.35;0.90;;;9.20;99.90;;;;;;4978376;28;20034;-75
2024/02/13 09:48:14;;;;;;;3.33;1.45;;;9.70;99.90;;;;;;4978779;28;20054;-76
2024/02/13 09:50:43;;;;;;;2.72;1.23;;;10.10;99.90;;;;;;4977267;28;20042;-75
2024/02/13 09:53:28;;;;;;;3.75;1.33;;;10.30;99.90;;;;;;4988412;28;20109;-75
2024/02/13 09:55:58;;;;;;;2.67;1.55;;;10.30;99.90;;;;;;4988367;28;20047;-76
2024/02/13 09:58:25;;;;;;;2.25;1.40;;;10.40;99.90;;;;;;4982606;28;20100;-76
2024/02/13 10:00:52;;;;;;;4.18;1.73;;;10.50;99.90;;;;;;4988447;28;20050;-75
2024/02/13 10:03:18;;;;;;;7.05;2.20;;;10.40;99.90;;;;;;4980011;28;20023;-76
2024/02/13 10:05:44;;;;;;;4.13;1.17;;;10.50;99.90;;;;;;4972003;28;20038;-77
2024/02/13 10:08:11;;;;;;;7.63;1.17;;;10.60;99.90;;;;;;4978042;28;20169;-75
2024/02/13 10:10:37;;;;;;;1.65;0.95;;;10.70;99.90;;;;;;4968690;28;20070;-76
2024/02/13 10:13:04;;;;;;;5.13;1.52;;;10.60;99.90;;;;;;4984443;28;20099;-75
2024/02/13 10:15:40;;;;;;;2.85;1.65;;;10.40;99.90;;;;;;4981407;28;20051;-77
2024/02/13 10:18:12;;;;;;;1.13;0.93;;;10.30;99.90;;;;;;4982017;28;20049;-76
2024/02/13 10:20:43;;;;;;;3.35;1.05;;;10.40;99.90;;;;;;4985677;28;20122;-77
2024/02/13 10:23:13;;;;;;;3.25;1.05;;;10.50;99.90;;;;;;4985517;28;20047;-76
2024/02/13 10:25:42;;;;;;;3.60;0.82;;;10.50;99.90;;;;;;4987746;28;20058;-76
2024/02/13 10:28:11;;;;;;;4.22;1.17;;;10.50;99.90;;;;;;4988695;28;20064;-76
2024/02/13 10:30:37;;;;;;;2.95;0.93;;;10.50;99.90;;;;;;4985923;28;20042;-76
2024/02/13 10:33:06;;;;;;;1.10;0.47;;;10.60;99.90;;;;;;4988536;28;20058;-77
2024/02/13 10:35:35;;;;;;;1.27;0.70;;;10.70;99.90;;;;;;4976586;28;20089;-77
2024/02/13 10:38:07;;;;;;;1.13;0.50;;;11.00;99.90;;;;;;4992645;28;20106;-75
2024/02/13 10:40:39;;;;;;;1.27;0.50;;;11.20;99.90;;;;;;4988942;28;20058;-75
2024/02/13 10:43:12;;;;;;;2.75;0.88;;;11.60;99.90;;;;;;4986944;28;20046;-78
2024/02/13 10:45:38;;;;;;;2.70;1.00;;;12.00;99.90;;;;;;4988751;28;20104;-77
2024/02/13 10:48:45;;;;;;;1.55;0.73;;;12.80;99.90;;;;;;4983886;28;20248;-77
2024/02/13 10:51:15;;;;;;;2.83;1.00;;;13.50;99.90;;;;;;4985031;28;20122;-76
2024/02/13 10:53:43;;;;;;;1.63;0.57;;;13.50;99.90;;;;;;4986809;28;20438;-77
2024/02/13 10:56:12;;;;;;;2.83;0.85;;;12.90;99.90;;;;;;4991456;28;20081;-77
2024/02/13 10:58:41;;;;;;;0.82;0.70;;;12.40;99.90;;;;;;4986414;28;20101;-76
2024/02/13 11:01:08;;;;;;;2.13;0.75;;;11.90;99.90;;;;;;4988706;28;20026;-77
2024/02/13 11:03:37;;;;;;;3.50;0.85;;;11.40;99.90;;;;;;4987296;28;20407;-77
2024/02/13 11:06:03;;;;;;;6.35;0.77;;;11.20;99.90;;;;;;4992415;28;20928;-77
2024/02/13 11:08:29;;;;;;;0.82;0.60;;;11.60;99.90;;;;;;4986457;28;20050;-78
2024/02/13 11:10:55;;;;;;;0.80;0.38;;;12.60;99.90;;;;;;4985915;28;20047;-75
2024/02/13 11:13:23;;;;;;;1.48;0.75;;;13.50;99.90;;;;;;4982020;28;20046;-76
2024/02/13 11:15:49;;;;;;;2.67;0.50;;;13.80;99.90;;;;;;4986351;28;20042;-76
2024/02/13 11:18:16;;;;;;;1.60;0.73;;;13.60;99.90;;;;;;4982407;28;20038;-75
2024/02/13 11:20:46;;;;;;;0.68;0.43;;;13.60;99.90;;;;;;4983863;28;20045;-75
2024/02/13 11:23:15;;;;;;;1.98;0.73;;;13.30;99.90;;;;;;4986317;28;20043;-76
2024/02/13 11:25:41;;;;;;;1.02;0.52;;;12.70;99.90;;;;;;5000877;28;20103;-78
2024/02/13 11:28:08;;;;;;;0.82;0.28;;;12.30;99.90;;;;;;4996573;28;20033;-76
2024/02/13 11:30:37;;;;;;;0.65;0.35;;;12.10;99.90;;;;;;4988383;28;20048;-75
2024/02/13 11:33:08;;;;;;;2.50;0.35;;;11.90;99.90;;;;;;4975990;28;20030;-78
2024/02/13 11:35:53;;;;;;;1.20;0.65;;;11.90;99.90;;;;;;4987301;28;20046;-75
2024/02/13 11:38:20;;;;;;;;;;;11.80;99.90;;;;;;4992507;28;20093;-78
2024/02/13 11:40:55;;;;;;;1.08;0.47;;;11.70;99.90;;;;;;4988103;28;19917;-77
2024/02/13 11:43:24;;;;;;;0.95;0.40;;;11.50;99.90;;;;;;5007013;28;20096;-75
2024/02/13 11:45:50;;;;;;;0.50;0.32;;;11.30;99.90;;;;;;4988346;28;20097;-75
2024/02/13 11:48:23;;;;;;;2.28;0.50;;;11.20;99.90;;;;;;4995303;28;20142;-75
2024/02/13 11:50:50;;;;;;;3.92;0.60;;;11.20;99.90;;;;;;4994496;28;20094;-76
2024/02/13 11:53:17;;;;;;;4.60;0.60;;;11.30;99.90;;;;;;4996249;28;20083;-78
2024/02/13 11:55:44;;;;;;;3.58;0.40;;;11.40;99.90;;;;;;4992385;28;20040;-77
2024/02/13 11:58:19;;;;;;;0.43;0.30;;;11.40;99.90;;;;;;4984436;28;20057;-75
2024/02/13 12:01:00;;;;;;;5.00;0.50;;;11.40;99.90;;;;;;4986821;28;20180;-75
2024/02/13 12:03:30;;;;;;;0.90;0.28;;;11.40;99.90;;;;;;4992632;28;20050;-76
2024/02/13 12:06:00;;;;;;;4.57;0.50;;;11.50;99.90;;;;;;4980627;28;20043;-78
2024/02/13 12:08:30;;;;;;;0.45;0.30;;;11.50;99.90;;;;;;4988011;28;20335;-77
2024/02/13 12:11:01;;;;;;;1.08;0.28;;;11.60;99.90;;;;;;4969434;28;20081;-75
2024/02/13 12:13:30;;;;;;;4.57;0.40;;;11.50;99.90;;;;;;4988665;28;20446;-75
2024/02/13 12:15:58;;;;;;;3.10;0.63;;;11.40;99.90;;;;;;4989031;28;20038;-76
2024/02/13 12:18:32;;;;;;;0.60;0.38;;;11.30;99.90;;;;;;4987641;28;20042;-76
2024/02/13 12:20:59;;;;;;;1.60;0.50;;;11.10;99.90;;;;;;4986099;28;20128;-77
2024/02/13 12:23:25;;;;;;;2.45;0.45;;;10.90;99.90;;;;;;4974079;28;20035;-76
2024/02/13 12:26:01;;;;;;;1.40;0.98;;;10.80;99.90;;;;;;4980999;28;20053;-75
2024/02/13 12:28:28;;;;;;;8.32;0.73;;;10.60;99.90;;;;;;4987084;28;20045;-77
2024/02/13 12:30:55;;;;;;;0.52;0.22;;;10.50;99.90;;;;;;4991671;28;20042;-78
2024/02/13 12:33:20;;;;;;;3.40;0.75;;;10.40;99.90;;;;;;4983021;28;20042;-75
2024/02/13 12:35:57;;;;;;;3.65;0.73;;;10.40;99.90;;;;;;4996078;28;20061;-79
2024/02/13 12:38:27;;;;;;;2.65;0.82;;;10.30;99.90;;;;;;4983060;28;20047;-79
2024/02/13 12:40:54;;;;;;;1.45;0.68;;;10.30;99.90;;;;;;4988278;28;20050;-77
2024/02/13 12:43:26;;;;;;;0.88;0.55;;;10.40;99.90;;;;;;4985117;28;20054;-78
2024/02/13 12:45:55;;;;;;;4.80;1.13;;;10.40;99.90;;;;;;4990176;28;20098;-77
2024/02/13 12:48:22;;;;;;;3.33;0.60;;;10.40;99.90;;;;;;4970740;28;20046;-76
2024/02/13 12:50:49;;;;;;;0.95;0.45;;;10.40;99.90;;;;;;4988618;28;20061;-75
2024/02/13 12:53:18;;;;;;;1.95;0.60;;;10.50;99.90;;;;;;4964014;28;20049;-78
2024/02/13 12:55:47;;;;;;;1.33;0.50;;;10.60;99.90;;;;;;4986411;28;20062;-79
2024/02/13 12:58:13;;;;;;;0.40;0.20;;;10.70;99.90;;;;;;4986740;28;20054;-78
2024/02/13 13:00:45;;;;;;;2.15;0.50;;;10.80;99.90;;;;;;4986642;28;20150;-78